createdAt,value
2024-04-21T00:01:22.891Z,102493.81
2024-04-21T00:03:50.388Z,102490.31
2024-04-21T00:06:17.356Z,102489.38
2024-04-21T00:08:44.162Z,102495.94
2024-04-21T00:11:11.150Z,102482.22
2024-04-21T00:13:38.127Z,102479.56
2024-04-21T00:16:05.170Z,102489.06
2024-04-21T00:18:32.320Z,102488.91
2024-04-21T00:20:59.121Z,102496.03
2024-04-21T00:23:25.808Z,102488.47
2024-04-21T00:25:59.529Z,102467.63
2024-04-21T00:28:26.548Z,102460.09
2024-04-21T00:30:53.377Z,102474.34
2024-04-21T00:33:20.457Z,102445.31
2024-04-21T00:35:47.552Z,102468.19
2024-04-21T00:38:15.177Z,102456.16
2024-04-21T00:40:42.541Z,102455.31
2024-04-21T00:43:10.999Z,102452.53
2024-04-21T00:45:47.843Z,102461.25
2024-04-21T00:48:15.711Z,102457.34
2024-04-21T00:50:47.612Z,102450.34
2024-04-21T00:53:17.741Z,102445.31
2024-04-21T00:55:44.885Z,102452.03
2024-04-21T00:58:14.142Z,102455.75
2024-04-21T01:00:42.092Z,102430.34
2024-04-21T01:03:08.868Z,102440.44
2024-04-21T01:05:35.662Z,102423.88
2024-04-21T01:08:02.550Z,102419.41
2024-04-21T01:10:29.326Z,102427.38
2024-04-21T01:12:56.310Z,102415.78
2024-04-21T01:15:26.587Z,102418.66
2024-04-21T01:17:56.355Z,102398.56
2024-04-21T01:20:23.629Z,102380.19
2024-04-21T01:22:50.883Z,102391.03
2024-04-21T01:25:18.317Z,102405.06
2024-04-21T01:27:45.501Z,102384.34
2024-04-21T01:30:12.813Z,102384.44
2024-04-21T01:32:40.858Z,102362.97
2024-04-21T01:35:08.002Z,102381.38
2024-04-21T01:37:36.560Z,102351.31
2024-04-21T01:40:07.709Z,102357.22
2024-04-21T01:42:34.608Z,102356.41
2024-04-21T01:45:01.881Z,102362.03
2024-04-21T01:47:28.728Z,102345.34
2024-04-21T01:49:57.091Z,102331.13
2024-04-21T01:52:27.811Z,102334.63
2024-04-21T01:54:54.584Z,102339.72
2024-04-21T01:57:25.376Z,102283.53
2024-04-21T01:59:55.265Z,102300.44
2024-04-21T02:02:24.251Z,102272.53
2024-04-21T02:04:51.808Z,102313.81
2024-04-21T02:07:19.841Z,102301.94
2024-04-21T02:09:46.646Z,102306.19
2024-04-21T02:12:13.381Z,102294.38
2024-04-21T02:14:40.137Z,102289.06
2024-04-21T02:17:07.089Z,102299.25
2024-04-21T02:19:34.054Z,102330.66
2024-04-21T02:22:02.065Z,102321.56
2024-04-21T02:24:40.552Z,102350.19
2024-04-21T02:27:10.708Z,102329.06
2024-04-21T02:29:37.987Z,102280.41
2024-04-21T02:32:07.593Z,102264.81
2024-04-21T02:34:36.741Z,102262.25
2024-04-21T02:37:03.670Z,102312.72
2024-04-21T02:39:30.967Z,102274.66
2024-04-21T02:41:57.771Z,102294.00
2024-04-21T02:44:24.464Z,102256.63
2024-04-21T02:46:51.287Z,102274.38
2024-04-21T02:49:18.126Z,102290.22
2024-04-21T02:51:44.903Z,102304.75
2024-04-21T02:54:11.837Z,102313.47
2024-04-21T02:56:38.806Z,102301.47
2024-04-21T02:59:05.757Z,102299.50
2024-04-21T03:01:32.682Z,102319.09
2024-04-21T03:03:59.670Z,102270.59
2024-04-21T03:06:26.514Z,102283.38
2024-04-21T03:08:56.201Z,102277.31
2024-04-21T03:11:23.127Z,102309.91
2024-04-21T03:13:49.962Z,102281.66
2024-04-21T03:16:24.338Z,102277.41
2024-04-21T03:18:51.110Z,102241.94
2024-04-21T03:21:18.283Z,102287.81
2024-04-21T03:23:45.124Z,102255.97
2024-04-21T03:26:17.504Z,102249.69
2024-04-21T03:28:46.427Z,102275.50
2024-04-21T03:31:13.576Z,102313.63
2024-04-21T03:33:45.629Z,102257.97
2024-04-21T03:36:12.539Z,102282.06
2024-04-21T03:38:39.911Z,102312.88
2024-04-21T03:41:10.761Z,102311.06
2024-04-21T03:43:38.006Z,102276.34
2024-04-21T03:46:04.882Z,102296.06
2024-04-21T03:48:37.460Z,102278.47
2024-04-21T03:51:04.515Z,102311.16
2024-04-21T03:53:31.497Z,102331.44
2024-04-21T03:55:58.538Z,102302.78
2024-04-21T03:58:25.700Z,102309.03
2024-04-21T04:00:52.565Z,102329.81
2024-04-21T04:03:19.482Z,102313.88
2024-04-21T04:05:47.331Z,102316.03
2024-04-21T04:08:14.392Z,102331.09
2024-04-21T04:10:44.464Z,102318.03
2024-04-21T04:13:11.779Z,102321.44
2024-04-21T04:15:39.598Z,102305.41
2024-04-21T04:18:06.734Z,102299.88
2024-04-21T04:20:36.585Z,102292.53
2024-04-21T04:23:05.123Z,102321.22
2024-04-21T04:25:31.872Z,102328.41
2024-04-21T04:27:58.588Z,102324.34
2024-04-21T04:30:25.443Z,102339.13
2024-04-21T04:32:52.264Z,102308.91
2024-04-21T04:35:19.119Z,102362.88
2024-04-21T04:37:45.894Z,102350.34
2024-04-21T04:40:12.939Z,102352.97
2024-04-21T04:42:39.648Z,102387.03
2024-04-21T04:45:06.695Z,102376.19
2024-04-21T04:47:33.591Z,102378.94
2024-04-21T04:50:00.671Z,102384.59
2024-04-21T04:52:27.414Z,102409.88
2024-04-21T04:54:54.182Z,102403.28
2024-04-21T04:57:20.918Z,102383.91
2024-04-21T04:59:47.631Z,102391.09
2024-04-21T05:02:14.364Z,102386.16
2024-04-21T05:04:41.279Z,102370.19
2024-04-21T05:07:09.688Z,102435.72
2024-04-21T05:09:37.998Z,102470.66
2024-04-21T05:12:05.201Z,102403.78
2024-04-21T05:14:31.908Z,102453.66
2024-04-21T05:16:58.621Z,102453.66
2024-04-21T05:19:25.410Z,102473.88
2024-04-21T05:21:52.269Z,102427.34
2024-04-21T05:24:19.531Z,102460.44
2024-04-21T05:26:46.371Z,102434.34
2024-04-21T05:29:13.243Z,102439.38
2024-04-21T05:31:43.087Z,102445.50
2024-04-21T05:34:09.987Z,102459.72
2024-04-21T05:36:36.856Z,102504.72
2024-04-21T05:39:03.707Z,102473.91
2024-04-21T05:41:30.553Z,102480.53
2024-04-21T05:43:57.628Z,102496.22
2024-04-21T05:46:24.544Z,102465.72
2024-04-21T05:48:51.558Z,102504.56
2024-04-21T05:51:18.437Z,102551.91
2024-04-21T05:53:45.286Z,102517.72
2024-04-21T05:56:12.212Z,102510.63
2024-04-21T05:58:39.052Z,102558.69
2024-04-21T06:01:05.934Z,102579.06
2024-04-21T06:03:32.871Z,102567.72
2024-04-21T06:05:59.684Z,102533.63
2024-04-21T06:08:26.509Z,102570.25
2024-04-21T06:10:57.596Z,102552.09
2024-04-21T06:13:25.578Z,102572.16
2024-04-21T06:15:52.579Z,102570.16
2024-04-21T06:18:19.616Z,102575.56
2024-04-21T06:20:46.462Z,102571.97
2024-04-21T06:23:13.755Z,102581.69
2024-04-21T06:25:40.616Z,102587.38
2024-04-21T06:28:07.469Z,102579.19
2024-04-21T06:30:34.462Z,102595.75
2024-04-21T06:33:01.331Z,102579.38
2024-04-21T06:35:28.045Z,102605.09
2024-04-21T06:37:54.830Z,102567.31
2024-04-21T06:40:21.570Z,102631.94
2024-04-21T06:42:49.309Z,102618.66
2024-04-21T06:45:16.173Z,102625.34
2024-04-21T06:47:42.930Z,102644.03
2024-04-21T06:50:09.914Z,102634.88
2024-04-21T06:52:36.727Z,102655.22
2024-04-21T06:55:03.532Z,102645.25
2024-04-21T06:57:30.733Z,102629.19
2024-04-21T06:59:57.448Z,102650.13
2024-04-21T07:02:24.242Z,102654.94
2024-04-21T07:04:50.994Z,102659.13
2024-04-21T07:07:18.905Z,102668.56
2024-04-21T07:09:45.861Z,102671.13
2024-04-21T07:12:12.605Z,102670.91
2024-04-21T07:14:39.316Z,102655.06
2024-04-21T07:17:06.066Z,102660.06
2024-04-21T07:19:32.836Z,102691.66
2024-04-21T07:22:00.270Z,102672.06
2024-04-21T07:24:27.108Z,102654.84
2024-04-21T07:26:54.718Z,102670.91
2024-04-21T07:29:23.685Z,102691.56
2024-04-21T07:31:50.709Z,102686.69
2024-04-21T07:34:17.485Z,102688.50
2024-04-21T07:36:44.292Z,102708.72
2024-04-21T07:39:11.360Z,102694.44
2024-04-21T07:41:41.661Z,102706.22
2024-04-21T07:44:08.582Z,102708.47
2024-04-21T07:46:35.559Z,102705.34
2024-04-21T07:49:03.274Z,102712.56
2024-04-21T07:51:30.080Z,102695.44
2024-04-21T07:53:57.029Z,102681.25
2024-04-21T07:56:23.822Z,102694.31
2024-04-21T07:58:53.753Z,102686.56
2024-04-21T08:01:20.613Z,102692.31
2024-04-21T08:03:53.573Z,102643.88
2024-04-21T08:06:20.345Z,102713.28
2024-04-21T08:08:50.636Z,102706.28
2024-04-21T08:11:20.536Z,102706.66
2024-04-21T08:13:47.604Z,102733.56
2024-04-21T08:16:14.516Z,102719.94
2024-04-21T08:18:43.570Z,102729.22
2024-04-21T08:21:10.580Z,102711.50
2024-04-21T08:23:37.464Z,102738.84
2024-04-21T08:26:05.026Z,102707.38
2024-04-21T08:28:31.940Z,102716.88
2024-04-21T08:30:58.770Z,102721.28
2024-04-21T08:33:27.698Z,102716.91
2024-04-21T08:35:55.864Z,102769.75
2024-04-21T08:38:24.619Z,102775.53
2024-04-21T08:40:52.639Z,102696.81
2024-04-21T08:43:26.373Z,102742.41
2024-04-21T08:45:55.281Z,102743.50
2024-04-21T08:48:27.082Z,102728.31
2024-04-21T08:50:56.724Z,102796.16
2024-04-21T08:53:24.279Z,102758.78
2024-04-21T08:55:51.901Z,102778.22
2024-04-21T08:58:20.096Z,102791.84
2024-04-21T09:00:47.332Z,102747.31
2024-04-21T09:03:17.494Z,102761.34
2024-04-21T09:05:45.017Z,102733.00
2024-04-21T09:08:11.813Z,102811.44
2024-04-21T09:10:38.715Z,102763.06
2024-04-21T09:13:05.678Z,102758.75
2024-04-21T09:15:33.556Z,102758.97
2024-04-21T09:18:01.944Z,102731.69
2024-04-21T09:20:29.113Z,102761.63
2024-04-21T09:22:55.966Z,102796.88
2024-04-21T09:25:24.281Z,102777.63
2024-04-21T09:27:51.349Z,102768.78
2024-04-21T09:30:19.725Z,102795.94
2024-04-21T09:32:47.074Z,102770.03
2024-04-21T09:35:14.156Z,102778.53
2024-04-21T09:37:48.158Z,102790.06
2024-04-21T09:40:16.705Z,102807.03
2024-04-21T09:42:45.305Z,102756.25
2024-04-21T09:45:14.722Z,102790.13
2024-04-21T09:47:43.593Z,102809.16
2024-04-21T09:50:12.615Z,102738.63
2024-04-21T09:52:40.074Z,102828.56
2024-04-21T09:55:07.671Z,102803.78
2024-04-21T09:57:35.850Z,102816.59
2024-04-21T10:00:10.114Z,102796.34
2024-04-21T10:02:39.377Z,102782.41
2024-04-21T10:05:13.290Z,102780.69
2024-04-21T10:07:44.784Z,102841.44
2024-04-21T10:10:21.795Z,102827.03
2024-04-21T10:12:49.994Z,102841.44
2024-04-21T10:15:19.892Z,102842.25
2024-04-21T10:18:04.953Z,102855.56
2024-04-21T10:20:38.999Z,102854.84
2024-04-21T10:23:11.438Z,102863.78
2024-04-21T10:25:45.355Z,102856.75
2024-04-21T10:28:14.046Z,102836.28
2024-04-21T10:30:41.275Z,102838.59
2024-04-21T10:33:11.494Z,102846.22
2024-04-21T10:35:40.342Z,102833.88
2024-04-21T10:38:15.441Z,102845.13
2024-04-21T10:40:46.591Z,102834.59
2024-04-21T10:43:13.919Z,102845.81
2024-04-21T10:45:40.771Z,102855.84
2024-04-21T10:48:09.514Z,102846.13
2024-04-21T10:50:38.543Z,102835.28
2024-04-21T10:53:06.798Z,102838.44
2024-04-21T10:55:36.795Z,102853.59
2024-04-21T10:58:08.108Z,102851.78
2024-04-21T11:00:39.306Z,102860.25
2024-04-21T11:03:07.075Z,102853.41
2024-04-21T11:05:43.312Z,102842.25
2024-04-21T11:08:10.282Z,102863.00
2024-04-21T11:10:37.084Z,102859.72
2024-04-21T11:13:07.171Z,102843.81
2024-04-21T11:15:40.870Z,102864.81
2024-04-21T11:18:10.002Z,102866.97
2024-04-21T11:20:37.383Z,102856.75
2024-04-21T11:23:04.375Z,102858.22
2024-04-21T11:25:31.387Z,102859.84
2024-04-21T11:27:58.116Z,102852.50
2024-04-21T11:30:26.310Z,102851.44
2024-04-21T11:32:53.254Z,102851.84
2024-04-21T11:35:20.543Z,102872.53
2024-04-21T11:37:53.029Z,102852.31
2024-04-21T11:40:21.927Z,102878.19
2024-04-21T11:42:48.988Z,102868.59
2024-04-21T11:45:29.121Z,102874.66
2024-04-21T11:47:57.073Z,102876.59
2024-04-21T11:50:25.529Z,102860.41
2024-04-21T11:52:52.826Z,102868.41
2024-04-21T11:55:19.651Z,102872.88
2024-04-21T11:57:46.768Z,102870.50
2024-04-21T12:00:14.953Z,102869.00
2024-04-21T12:02:41.794Z,102859.75
2024-04-21T12:05:08.674Z,102875.19
2024-04-21T12:07:35.435Z,102871.38
2024-04-21T12:10:02.253Z,102877.25
2024-04-21T12:12:29.066Z,102866.03
2024-04-21T12:14:55.757Z,102865.28
2024-04-21T12:17:23.257Z,102861.03
2024-04-21T12:19:51.010Z,102798.59
2024-04-21T12:22:18.037Z,102845.28
2024-04-21T12:24:44.724Z,102823.63
2024-04-21T12:27:11.422Z,102854.63
2024-04-21T12:29:38.088Z,102870.31
2024-04-21T12:32:05.308Z,102860.81
2024-04-21T12:34:32.191Z,102880.97
2024-04-21T12:36:58.939Z,102879.78
2024-04-21T12:39:26.036Z,102879.78
2024-04-21T12:41:53.018Z,102859.09
2024-04-21T12:44:19.796Z,102870.09
2024-04-21T12:46:49.803Z,102861.34
2024-04-21T12:49:16.749Z,102856.22
2024-04-21T12:51:47.366Z,102867.75
2024-04-21T12:54:16.606Z,102853.88
2024-04-21T12:56:44.617Z,102874.47
2024-04-21T12:59:11.295Z,102873.38
2024-04-21T13:01:38.079Z,102869.16
2024-04-21T13:04:05.621Z,102872.53
2024-04-21T13:06:32.382Z,102863.06
2024-04-21T13:08:59.035Z,102846.22
2024-04-21T13:11:25.848Z,102851.22
2024-04-21T13:13:53.211Z,102854.44
2024-04-21T13:16:19.957Z,102850.38
2024-04-21T13:18:46.750Z,102817.69
2024-04-21T13:21:13.534Z,102856.03
2024-04-21T13:23:42.620Z,102857.09
2024-04-21T13:26:09.829Z,102853.56
2024-04-21T13:28:36.578Z,102827.59
2024-04-21T13:31:03.581Z,102870.00
2024-04-21T13:33:30.443Z,102852.63
2024-04-21T13:35:57.210Z,102847.19
2024-04-21T13:38:23.935Z,102839.72
2024-04-21T13:40:50.722Z,102843.22
2024-04-21T13:43:17.427Z,102841.22
2024-04-21T13:45:44.415Z,102859.97
2024-04-21T13:48:11.169Z,102866.13
2024-04-21T13:50:37.927Z,102838.44
2024-04-21T13:53:04.882Z,102857.41
2024-04-21T13:55:31.729Z,102867.75
2024-04-21T13:57:58.508Z,102855.38
2024-04-21T14:00:25.526Z,102837.50
2024-04-21T14:02:52.320Z,102858.03
2024-04-21T14:05:19.222Z,102852.06
2024-04-21T14:07:45.921Z,102866.25
2024-04-21T14:10:12.632Z,102858.59
2024-04-21T14:12:39.402Z,102851.66
2024-04-21T14:15:06.390Z,102866.13
2024-04-21T14:17:33.205Z,102818.19
2024-04-21T14:20:00.002Z,102853.06
2024-04-21T14:22:26.731Z,102866.03
2024-04-21T14:24:53.548Z,102865.19
2024-04-21T14:27:20.312Z,102873.28
2024-04-21T14:29:50.508Z,102864.22
2024-04-21T14:32:19.735Z,102843.69
2024-04-21T14:34:46.441Z,102842.81
2024-04-21T14:37:13.202Z,102862.97
2024-04-21T14:39:39.928Z,102855.19
2024-04-21T14:42:06.694Z,102851.97
2024-04-21T14:44:37.731Z,102864.03
2024-04-21T14:47:05.364Z,102869.66
2024-04-21T14:49:32.609Z,102851.97
2024-04-21T14:51:59.423Z,102867.09
2024-04-21T14:54:26.117Z,102840.81
2024-04-21T14:56:54.999Z,102865.72
2024-04-21T14:59:23.131Z,102868.91
2024-04-21T15:01:49.953Z,102858.69
2024-04-21T15:04:18.964Z,102862.50
2024-04-21T15:06:46.093Z,102878.50
2024-04-21T15:09:12.789Z,102873.28
2024-04-21T15:11:39.673Z,102872.75
2024-04-21T15:14:06.413Z,102877.44
2024-04-21T15:16:36.252Z,102871.56
2024-04-21T15:19:04.989Z,102874.88
2024-04-21T15:21:31.726Z,102877.34
2024-04-21T15:23:58.413Z,102867.53
2024-04-21T15:26:25.091Z,102873.72
2024-04-21T15:28:51.788Z,102882.13
2024-04-21T15:31:18.599Z,102890.00
2024-04-21T15:33:45.626Z,102883.81
2024-04-21T15:36:14.312Z,102891.81
2024-04-21T15:38:41.094Z,102909.00
2024-04-21T15:41:08.512Z,102910.06
2024-04-21T15:43:35.364Z,102903.88
2024-04-21T15:46:02.360Z,102898.75
2024-04-21T15:48:32.225Z,102907.91
2024-04-21T15:50:59.005Z,102926.44
2024-04-21T15:53:25.710Z,102923.91
2024-04-21T15:55:52.565Z,102897.06
2024-04-21T15:58:19.522Z,102937.47
2024-04-21T16:00:47.248Z,102929.13
2024-04-21T16:03:14.052Z,102951.09
2024-04-21T16:05:42.645Z,102944.25
2024-04-21T16:08:09.786Z,102944.50
2024-04-21T16:10:36.712Z,102931.38
2024-04-21T16:13:03.629Z,102927.88
2024-04-21T16:15:30.428Z,102916.44
2024-04-21T16:17:57.195Z,102911.13
2024-04-21T16:20:24.023Z,102919.53
2024-04-21T16:22:50.803Z,102907.41
2024-04-21T16:25:17.711Z,102911.66
2024-04-21T16:27:46.586Z,102911.66
2024-04-21T16:30:13.464Z,102854.53
2024-04-21T16:32:42.282Z,102876.69
2024-04-21T16:35:10.303Z,102909.22
2024-04-21T16:37:37.293Z,102901.88
2024-04-21T16:40:04.475Z,102903.22
2024-04-21T16:42:31.587Z,102917.22
2024-04-21T16:44:58.720Z,102906.00
2024-04-21T16:47:30.246Z,102894.94
2024-04-21T16:49:57.707Z,102915.91
2024-04-21T16:52:24.801Z,102907.91
2024-04-21T16:54:51.814Z,102907.06
2024-04-21T16:57:26.161Z,102897.59
2024-04-21T16:59:53.255Z,102911.34
2024-04-21T17:02:20.485Z,102924.44
2024-04-21T17:04:49.223Z,102914.63
2024-04-21T17:07:20.070Z,102910.38
2024-04-21T17:09:49.478Z,102899.72
2024-04-21T17:12:19.751Z,102897.69
2024-04-21T17:14:46.579Z,102916.44
2024-04-21T17:17:13.589Z,102907.59
2024-04-21T17:19:40.384Z,102925.72
2024-04-21T17:22:07.257Z,102936.06
2024-04-21T17:24:34.033Z,102934.47
2024-04-21T17:27:00.799Z,102931.38
2024-04-21T17:29:27.473Z,102944.16
2024-04-21T17:31:54.182Z,102950.44
2024-04-21T17:34:20.935Z,102932.53
2024-04-21T17:36:47.634Z,102939.47
2024-04-21T17:39:14.382Z,102964.53
2024-04-21T17:41:41.187Z,102948.31
2024-04-21T17:44:07.937Z,102943.50
2024-04-21T17:46:37.960Z,102953.97
2024-04-21T17:49:04.763Z,102935.31
2024-04-21T17:51:32.440Z,102946.50
2024-04-21T17:53:59.136Z,102955.25
2024-04-21T17:56:25.830Z,102944.59
2024-04-21T17:58:52.502Z,102942.25
2024-04-21T18:01:19.499Z,102940.72
2024-04-21T18:04:52.857Z,102947.16
2024-04-21T18:07:19.626Z,102947.16
2024-04-21T18:09:46.273Z,102954.63
2024-04-21T18:12:12.937Z,102956.84
2024-04-21T18:14:39.528Z,102963.34
2024-04-21T18:17:13.746Z,102966.22
2024-04-21T18:19:48.549Z,102962.03
2024-04-21T18:22:16.521Z,102970.25
2024-04-21T18:24:43.477Z,102974.84
2024-04-21T18:27:10.091Z,102967.91
2024-04-21T18:29:36.682Z,102970.78
2024-04-21T18:32:03.318Z,102977.16
2024-04-21T18:34:29.986Z,102969.34
2024-04-21T18:36:58.283Z,102970.34
2024-04-21T18:39:26.318Z,102966.94
2024-04-21T18:41:52.883Z,102972.44
2024-04-21T18:44:19.449Z,102973.50
2024-04-21T18:46:46.205Z,102973.59
2024-04-21T18:49:12.883Z,102978.16
2024-04-21T18:51:39.821Z,102979.13
2024-04-21T18:54:07.504Z,102981.06
2024-04-21T18:56:34.174Z,102989.16
2024-04-21T18:59:00.855Z,102980.41
2024-04-21T19:01:27.509Z,102980.50
2024-04-21T19:03:54.177Z,102982.41
2024-04-21T19:06:20.750Z,102988.78
2024-04-21T19:08:47.365Z,102992.41
2024-04-21T19:11:14.088Z,102995.19
2024-04-21T19:13:41.328Z,103001.47
2024-04-21T19:16:08.863Z,103001.56
2024-04-21T19:18:35.839Z,102999.94
2024-04-21T19:21:03.133Z,102998.25
2024-04-21T19:23:29.849Z,103009.84
2024-04-21T19:25:56.635Z,103013.41
2024-04-21T19:28:23.549Z,103015.31
2024-04-21T19:30:50.200Z,103010.09
2024-04-21T19:33:16.861Z,103006.56
2024-04-21T19:35:43.475Z,103015.53
2024-04-21T19:38:10.021Z,103012.03
2024-04-21T19:40:36.766Z,103012.13
2024-04-21T19:43:05.315Z,103013.06
2024-04-21T19:45:34.698Z,103012.22
2024-04-21T19:48:01.418Z,103013.16
2024-04-21T19:50:30.520Z,103005.28
2024-04-21T19:52:57.139Z,103014.22
2024-04-21T19:55:25.043Z,103015.16
2024-04-21T19:57:51.640Z,103021.44
2024-04-21T20:00:19.034Z,103020.59
2024-04-21T20:02:45.659Z,103020.69
2024-04-21T20:05:12.334Z,103022.47
2024-04-21T20:07:39.131Z,103025.28
2024-04-21T20:10:05.971Z,103030.59
2024-04-21T20:12:32.756Z,103026.22
2024-04-21T20:15:18.095Z,103021.00
2024-04-21T20:18:03.024Z,103030.78
2024-04-21T20:20:29.651Z,103041.53
2024-04-21T20:22:56.971Z,103036.19
2024-04-21T20:25:23.667Z,103034.50
2024-04-21T20:27:50.323Z,103040.75
2024-04-21T20:30:16.958Z,103039.91
2024-04-21T20:32:43.681Z,103042.56
2024-04-21T20:35:10.250Z,103036.47
2024-04-21T20:37:36.907Z,103042.75
2024-04-21T20:40:04.193Z,103050.72
2024-04-21T20:42:30.845Z,103045.50
2024-04-21T20:44:57.468Z,103047.31
2024-04-21T20:47:24.111Z,103056.28
2024-04-21T20:49:50.765Z,103055.41
2024-04-21T20:52:17.383Z,103050.19
2024-04-21T20:54:45.720Z,103054.56
2024-04-21T20:57:12.297Z,103052.94
2024-04-21T20:59:38.848Z,103060.91
2024-04-21T21:02:05.637Z,103053.91
2024-04-21T21:04:32.317Z,103053.91
2024-04-21T21:06:58.906Z,103054.84
2024-04-21T21:09:25.481Z,103055.78
2024-04-21T21:11:52.089Z,103059.50
2024-04-21T21:14:18.665Z,103055.97
2024-04-21T21:16:45.347Z,103058.63
2024-04-21T21:19:14.741Z,103058.72
2024-04-21T21:21:41.323Z,103059.66
2024-04-21T21:24:09.011Z,103065.13
2024-04-21T21:26:35.593Z,103057.22
2024-04-21T21:29:02.192Z,103065.22
2024-04-21T21:31:28.800Z,103060.06
2024-04-21T21:33:55.498Z,103073.28
2024-04-21T21:36:22.376Z,103069.00
2024-04-21T21:38:48.981Z,103068.16
2024-04-21T21:41:15.628Z,103065.56
2024-04-21T21:43:42.348Z,103062.16
2024-04-21T21:46:08.964Z,103064.91
2024-04-21T21:48:35.660Z,103068.50
2024-04-21T21:51:02.235Z,103066.81
2024-04-21T21:53:28.859Z,103065.13
2024-04-21T21:55:55.454Z,103065.13
2024-04-21T21:58:22.159Z,103063.50
2024-04-21T22:00:50.718Z,103067.97
2024-04-21T22:03:17.329Z,103068.03
2024-04-21T22:05:43.917Z,103069.00
2024-04-21T22:08:10.623Z,103058.44
2024-04-21T22:10:37.226Z,103061.19
2024-04-21T22:13:03.879Z,103067.47
2024-04-21T22:15:30.540Z,103058.72
2024-04-21T22:17:57.515Z,103062.34
2024-04-21T22:20:24.234Z,103059.78
2024-04-21T22:22:52.698Z,103050.09
2024-04-21T22:25:19.811Z,103056.38
2024-04-21T22:27:46.727Z,103046.69
2024-04-21T22:30:13.292Z,103054.75
2024-04-21T22:32:40.432Z,103057.50
2024-04-21T22:35:07.357Z,103053.97
2024-04-21T22:37:34.078Z,103050.56
2024-04-21T22:40:00.860Z,103047.03
2024-04-21T22:42:28.048Z,103050.63
2024-04-21T22:44:54.628Z,103053.41
2024-04-21T22:47:21.384Z,103049.03
2024-04-21T22:49:51.839Z,103042.03
2024-04-21T22:52:18.434Z,103040.31
2024-04-21T22:54:45.038Z,103050.09
2024-04-21T22:57:11.594Z,103036.03
2024-04-21T22:59:38.186Z,103034.31
2024-04-21T23:02:05.487Z,103033.47
2024-04-21T23:04:32.406Z,103043.22
2024-04-21T23:06:59.038Z,103029.19
2024-04-21T23:09:25.600Z,103031.84
2024-04-21T23:11:52.224Z,103029.25
2024-04-21T23:14:18.840Z,103027.56
2024-04-21T23:16:45.427Z,103032.03
2024-04-21T23:19:12.055Z,103034.78
2024-04-21T23:21:38.647Z,103035.69
2024-04-21T23:24:05.319Z,103024.31
2024-04-21T23:26:31.904Z,103026.09
2024-04-21T23:28:58.546Z,103018.22
2024-04-21T23:31:27.232Z,103015.66
2024-04-21T23:33:54.419Z,103006.81
2024-04-21T23:36:21.011Z,103016.59
2024-04-21T23:38:47.609Z,103010.44
2024-04-21T23:41:14.144Z,103022.00
2024-04-21T23:43:40.736Z,103023.81
2024-04-21T23:46:08.796Z,103019.56
2024-04-21T23:48:35.551Z,103005.41
2024-04-21T23:51:02.139Z,103007.22
2024-04-21T23:53:28.698Z,103011.69
2024-04-21T23:55:55.237Z,103024.09
2024-04-21T23:58:21.867Z,103018.78
